createdAt,value
2017-11-23T00:00:59.627Z,30.33
2017-11-23T00:02:02.255Z,28.77
2017-11-23T00:03:04.727Z,26.98
2017-11-23T00:04:08.005Z,27.67
2017-11-23T00:05:10.524Z,26.27
2017-11-23T00:06:12.999Z,28.48
2017-11-23T00:07:15.489Z,24.67
2017-11-23T00:08:18.572Z,27.30
2017-11-23T00:09:21.039Z,28.33
2017-11-23T00:10:23.556Z,33.83
2017-11-23T00:11:26.797Z,29.05
2017-11-23T00:12:30.784Z,28.67
2017-11-23T00:13:33.253Z,29.83
2017-11-23T00:14:35.714Z,29.30
2017-11-23T00:15:38.326Z,25.30
2017-11-23T00:16:41.555Z,26.05
2017-11-23T00:17:44.049Z,32.45
2017-11-23T00:18:46.527Z,28.58
2017-11-23T00:19:49.748Z,30.58
2017-11-23T00:20:52.212Z,29.63
2017-11-23T00:21:54.703Z,26.55
2017-11-23T00:22:57.933Z,27.02
2017-11-23T00:24:00.400Z,23.65
2017-11-23T00:25:03.536Z,27.40
2017-11-23T00:26:06.006Z,32.05
2017-11-23T00:27:08.600Z,26.37
2017-11-23T00:28:11.101Z,27.52
2017-11-23T00:29:14.343Z,24.75
2017-11-23T00:30:17.608Z,27.20
2017-11-23T00:31:20.080Z,27.60
2017-11-23T00:32:22.534Z,28.08
2017-11-23T00:33:25.822Z,24.98
2017-11-23T00:34:28.333Z,27.62
2017-11-23T00:35:30.843Z,21.67
2017-11-23T00:36:33.383Z,27.58
2017-11-23T00:37:35.859Z,25.30
2017-11-23T00:38:38.682Z,26.58
2017-11-23T00:39:42.660Z,26.95
2017-11-23T00:40:45.882Z,25.67
2017-11-23T00:41:48.350Z,23.62
2017-11-23T00:42:51.555Z,22.08
2017-11-23T00:43:54.892Z,26.37
2017-11-23T00:44:57.387Z,22.90
2017-11-23T00:45:59.858Z,26.80
2017-11-23T00:47:02.326Z,26.83
2017-11-23T00:48:04.786Z,23.35
2017-11-23T00:49:07.273Z,26.90
2017-11-23T00:50:09.736Z,26.17
2017-11-23T00:51:12.192Z,24.87
2017-11-23T00:52:15.435Z,27.13
2017-11-23T00:53:17.974Z,22.87
2017-11-23T00:54:20.479Z,24.70
2017-11-23T00:55:23.702Z,28.35
2017-11-23T00:56:26.307Z,27.15
2017-11-23T00:57:28.796Z,24.92
2017-11-23T00:58:31.262Z,28.55
2017-11-23T00:59:33.958Z,34.38
2017-11-23T01:00:36.429Z,23.52
2017-11-23T01:01:38.901Z,26.33
2017-11-23T01:02:41.361Z,28.33
2017-11-23T01:03:43.819Z,24.75
2017-11-23T01:04:47.093Z,27.70
2017-11-23T01:05:49.627Z,36.28
2017-11-23T01:06:52.111Z,26.90
2017-11-23T01:07:55.434Z,27.25
2017-11-23T01:08:57.895Z,24.63
2017-11-23T01:10:01.167Z,26.95
2017-11-23T01:11:03.680Z,28.25
2017-11-23T01:12:06.154Z,29.27
2017-11-23T01:13:08.644Z,27.35
2017-11-23T01:14:11.112Z,29.83
2017-11-23T01:15:13.608Z,33.10
2017-11-23T01:16:16.065Z,24.70
2017-11-23T01:17:18.531Z,27.62
2017-11-23T01:18:21.004Z,25.48
2017-11-23T01:19:23.464Z,26.67
2017-11-23T01:20:26.757Z,27.92
2017-11-23T01:21:29.264Z,25.58
2017-11-23T01:22:36.668Z,21.98
2017-11-23T01:23:39.953Z,21.58
2017-11-23T01:24:42.421Z,28.90
2017-11-23T01:25:44.976Z,26.50
2017-11-23T01:26:47.499Z,23.23
2017-11-23T01:27:49.975Z,24.02
2017-11-23T01:28:52.438Z,29.85
2017-11-23T01:29:55.668Z,28.50
2017-11-23T01:30:59.034Z,28.15
2017-11-23T01:32:02.276Z,24.70
2017-11-23T01:33:05.535Z,22.65
2017-11-23T01:34:08.348Z,26.42
2017-11-23T01:35:10.899Z,26.67
2017-11-23T01:36:13.396Z,24.80
2017-11-23T01:37:16.635Z,24.98
2017-11-23T01:38:19.884Z,23.25
2017-11-23T01:39:23.108Z,22.45
2017-11-23T01:40:26.479Z,27.83
2017-11-23T01:41:28.956Z,23.15
2017-11-23T01:42:31.425Z,18.70
2017-11-23T01:43:33.894Z,25.67
2017-11-23T01:44:36.377Z,19.65
2017-11-23T01:45:38.868Z,24.35
2017-11-23T01:46:41.464Z,20.45
2017-11-23T01:47:44.784Z,25.60
2017-11-23T01:48:47.259Z,22.98
2017-11-23T01:49:49.719Z,22.48
2017-11-23T01:50:53.020Z,19.15
2017-11-23T01:51:55.521Z,23.38
2017-11-23T01:52:57.984Z,23.62
2017-11-23T01:54:01.215Z,22.60
2017-11-23T01:55:03.787Z,21.12
2017-11-23T01:56:06.313Z,21.00
2017-11-23T01:57:08.818Z,20.00
2017-11-23T01:58:12.048Z,24.23
2017-11-23T01:59:14.554Z,20.08
2017-11-23T02:00:17.022Z,19.98
2017-11-23T02:01:20.284Z,21.00
2017-11-23T02:02:22.784Z,22.25
2017-11-23T02:03:26.024Z,17.87
2017-11-23T02:04:29.327Z,20.73
2017-11-23T02:05:31.784Z,18.25
2017-11-23T02:06:35.007Z,23.80
2017-11-23T02:07:37.506Z,29.77
2017-11-23T02:08:39.980Z,19.23
2017-11-23T02:09:42.451Z,19.87
2017-11-23T02:10:44.933Z,20.70
2017-11-23T02:11:48.160Z,17.37
2017-11-23T02:12:50.653Z,24.77
2017-11-23T02:13:53.169Z,27.42
2017-11-23T02:14:55.631Z,18.48
2017-11-23T02:15:58.100Z,18.37
2017-11-23T02:17:00.564Z,20.52
2017-11-23T02:18:03.116Z,19.45
2017-11-23T02:19:05.641Z,21.35
2017-11-23T02:20:08.881Z,20.12
2017-11-23T02:21:11.350Z,17.70
2017-11-23T02:22:13.880Z,23.17
2017-11-23T02:23:16.429Z,18.40
2017-11-23T02:24:18.928Z,21.70
2017-11-23T02:25:21.396Z,17.85
2017-11-23T02:26:23.860Z,19.00
2017-11-23T02:27:26.535Z,20.83
2017-11-23T02:28:29.041Z,17.35
2017-11-23T02:29:31.513Z,19.98
2017-11-23T02:30:33.975Z,22.10
2017-11-23T02:31:36.493Z,19.12
2017-11-23T02:32:38.981Z,17.70
2017-11-23T02:33:41.476Z,17.77
2017-11-23T02:34:43.945Z,20.65
2017-11-23T02:35:47.178Z,20.30
2017-11-23T02:36:49.686Z,20.55
2017-11-23T02:37:52.264Z,18.85
2017-11-23T02:38:54.759Z,20.33
2017-11-23T02:39:57.218Z,19.35
2017-11-23T02:40:59.771Z,23.40
2017-11-23T02:42:02.272Z,18.20
2017-11-23T02:43:04.746Z,18.10
2017-11-23T02:44:07.237Z,23.12
2017-11-23T02:45:09.708Z,20.40
2017-11-23T02:46:12.181Z,17.73
2017-11-23T02:47:14.635Z,19.90
2017-11-23T02:48:17.105Z,21.05
2017-11-23T02:49:20.351Z,18.42
2017-11-23T02:50:23.609Z,19.80
2017-11-23T02:51:26.106Z,18.00
2017-11-23T02:52:29.334Z,15.68
2017-11-23T02:53:31.793Z,17.75
2017-11-23T02:54:34.316Z,18.80
2017-11-23T02:55:36.849Z,17.10
2017-11-23T02:56:39.337Z,22.30
2017-11-23T02:57:41.804Z,22.13
2017-11-23T02:58:44.301Z,15.20
2017-11-23T02:59:47.538Z,15.63
2017-11-23T03:00:50.771Z,15.40
2017-11-23T03:01:53.224Z,17.05
2017-11-23T03:02:55.700Z,16.45
2017-11-23T03:16:11.891Z,15.52
2017-11-23T03:17:14.392Z,15.48
2017-11-23T03:18:16.872Z,17.45
2017-11-23T03:19:19.380Z,16.05
2017-11-23T03:20:21.881Z,13.20
2017-11-23T03:21:24.344Z,14.43
2017-11-23T03:22:26.812Z,15.63
2017-11-23T03:23:29.291Z,14.57
2017-11-23T03:24:33.301Z,15.60
2017-11-23T03:25:35.790Z,15.48
2017-11-23T03:26:38.347Z,12.73
2017-11-23T03:27:40.818Z,17.20
2017-11-23T03:28:43.300Z,12.80
2017-11-23T03:29:45.936Z,12.98
2017-11-23T03:30:48.400Z,16.92
2017-11-23T03:31:50.859Z,14.10
2017-11-23T03:32:54.118Z,15.68
2017-11-23T03:33:56.605Z,18.80
2017-11-23T03:34:59.087Z,12.55
2017-11-23T03:36:01.536Z,12.10
2017-11-23T03:37:04.054Z,16.08
2017-11-23T03:38:06.540Z,14.95
2017-11-23T03:39:09.027Z,17.05
2017-11-23T03:40:11.504Z,17.58
2017-11-23T03:41:13.967Z,15.35
2017-11-23T03:42:16.465Z,13.82
2017-11-23T03:43:18.947Z,14.13
2017-11-23T03:44:22.183Z,15.85
2017-11-23T03:45:25.419Z,15.45
2017-11-23T03:46:28.647Z,12.15
2017-11-23T03:47:31.144Z,17.45
2017-11-23T03:48:33.637Z,15.70
2017-11-23T03:49:36.102Z,15.32
2017-11-23T03:50:38.586Z,17.08
2017-11-23T03:51:41.058Z,17.80
2017-11-23T03:52:43.544Z,12.55
2017-11-23T03:53:46.040Z,13.95
2017-11-23T03:54:48.575Z,12.05
2017-11-23T03:55:51.832Z,14.55
2017-11-23T03:56:54.304Z,15.45
2017-11-23T03:57:56.839Z,14.45
2017-11-23T03:58:59.332Z,14.55
2017-11-23T04:00:01.855Z,15.48
2017-11-23T04:02:07.046Z,13.10
2017-11-23T04:03:10.357Z,11.35
2017-11-23T04:04:13.604Z,11.40
2017-11-23T04:05:16.212Z,16.75
2017-11-23T04:06:18.681Z,13.32
2017-11-23T04:07:21.213Z,14.02
2017-11-23T04:08:23.680Z,17.20
2017-11-23T04:09:26.149Z,13.82
2017-11-23T04:10:28.659Z,14.35
2017-11-23T04:11:31.130Z,12.88
2017-11-23T04:12:34.367Z,12.60
2017-11-23T04:13:37.619Z,16.05
2017-11-23T04:14:40.859Z,13.90
2017-11-23T04:15:44.143Z,13.30
2017-11-23T04:16:46.667Z,16.52
2017-11-23T04:17:49.144Z,15.38
2017-11-23T04:18:51.613Z,12.30
2017-11-23T04:19:54.079Z,15.82
2017-11-23T04:20:57.364Z,15.68
2017-11-23T04:21:59.868Z,12.63
2017-11-23T04:23:02.327Z,13.82
2017-11-23T04:24:04.781Z,17.33
2017-11-23T04:25:07.364Z,11.80
2017-11-23T04:26:09.824Z,13.88
2017-11-23T04:27:12.329Z,14.68
2017-11-23T04:28:14.791Z,14.63
2017-11-23T04:29:17.260Z,9.82
2017-11-23T04:30:19.739Z,14.27
2017-11-23T04:31:22.231Z,11.55
2017-11-23T04:32:24.853Z,11.82
2017-11-23T04:33:27.332Z,12.60
2017-11-23T04:34:29.830Z,12.40
2017-11-23T04:35:32.289Z,12.75
2017-11-23T04:36:34.772Z,12.00
2017-11-23T04:37:37.249Z,13.27
2017-11-23T04:38:40.508Z,10.68
2017-11-23T04:39:42.975Z,14.13
2017-11-23T04:40:45.437Z,14.00
2017-11-23T04:41:48.682Z,11.00
2017-11-23T04:42:51.230Z,14.82
2017-11-23T04:43:53.721Z,10.45
2017-11-23T04:44:56.268Z,15.90
2017-11-23T04:45:59.509Z,14.48
2017-11-23T04:47:02.740Z,11.93
2017-11-23T04:48:05.200Z,14.48
2017-11-23T04:49:07.675Z,15.23
2017-11-23T04:50:10.195Z,11.93
2017-11-23T04:51:12.671Z,12.40
2017-11-23T04:52:15.156Z,10.35
2017-11-23T04:53:17.739Z,12.25
2017-11-23T04:54:20.244Z,10.40
2017-11-23T04:55:22.793Z,9.52
2017-11-23T04:56:25.290Z,10.25
2017-11-23T04:57:28.546Z,16.80
2017-11-23T04:58:31.071Z,10.25
2017-11-23T04:59:33.589Z,11.12
2017-11-23T05:00:36.123Z,11.93
2017-11-23T05:01:38.608Z,9.80
2017-11-23T05:02:41.091Z,7.75
2017-11-23T05:03:43.564Z,9.90
2017-11-23T05:04:46.846Z,9.70
2017-11-23T05:05:49.348Z,14.50
2017-11-23T05:06:51.809Z,12.20
2017-11-23T05:07:54.301Z,9.95
2017-11-23T05:08:57.536Z,9.25
2017-11-23T05:10:00.809Z,11.60
2017-11-23T05:11:03.306Z,12.45
2017-11-23T05:12:05.772Z,11.07
2017-11-23T05:13:08.277Z,12.00
2017-11-23T05:14:10.754Z,14.30
2017-11-23T05:15:13.336Z,10.32
2017-11-23T05:16:16.156Z,14.65
2017-11-23T05:17:18.671Z,9.05
2017-11-23T05:18:21.890Z,9.68
2017-11-23T05:19:24.364Z,11.07
2017-11-23T05:20:26.841Z,14.35
2017-11-23T05:21:30.074Z,9.30
2017-11-23T05:22:32.647Z,12.13
2017-11-23T05:23:35.118Z,7.90
2017-11-23T05:24:37.691Z,11.10
2017-11-23T05:25:40.169Z,8.55
2017-11-23T05:26:43.422Z,13.32
2017-11-23T05:27:45.999Z,8.40
2017-11-23T05:28:48.505Z,10.82
2017-11-23T05:29:51.551Z,7.12
2017-11-23T05:30:54.020Z,11.43
2017-11-23T05:31:56.599Z,9.30
2017-11-23T05:32:59.060Z,12.77
2017-11-23T05:34:01.689Z,8.65
2017-11-23T05:35:04.147Z,9.95
2017-11-23T05:36:06.604Z,13.62
2017-11-23T05:37:09.119Z,10.10
2017-11-23T05:38:12.398Z,17.10
2017-11-23T05:39:14.857Z,6.50
2017-11-23T05:40:17.355Z,7.78
2017-11-23T05:41:19.848Z,7.72
2017-11-23T05:42:22.306Z,10.95
2017-11-23T05:43:24.776Z,14.55
2017-11-23T05:44:28.099Z,11.75
2017-11-23T05:45:30.567Z,8.60
2017-11-23T05:46:33.073Z,6.32
2017-11-23T05:47:36.334Z,7.60
2017-11-23T05:48:39.311Z,8.88
2017-11-23T05:49:41.799Z,7.95
2017-11-23T05:50:44.319Z,8.85
2017-11-23T05:51:46.793Z,7.80
2017-11-23T05:52:49.312Z,10.35
2017-11-23T05:53:51.794Z,9.02
2017-11-23T05:54:54.251Z,8.18
2017-11-23T05:55:56.749Z,10.35
2017-11-23T05:56:59.213Z,7.25
2017-11-23T05:58:02.196Z,6.85
2017-11-23T05:59:04.666Z,7.85
2017-11-23T06:00:07.176Z,6.50
2017-11-23T06:01:09.687Z,8.65
2017-11-23T06:02:12.212Z,13.65
2017-11-23T06:03:16.099Z,6.30
2017-11-23T06:04:18.638Z,7.07
2017-11-23T06:05:21.140Z,6.37
2017-11-23T06:06:23.647Z,8.18
2017-11-23T06:07:26.180Z,11.82
2017-11-23T06:08:28.646Z,9.27
2017-11-23T06:09:31.140Z,9.75
2017-11-23T06:10:33.633Z,10.73
2017-11-23T06:11:36.095Z,12.55
2017-11-23T06:12:38.559Z,15.15
2017-11-23T06:13:41.023Z,9.95
2017-11-23T06:14:43.477Z,8.02
2017-11-23T06:15:46.001Z,10.63
2017-11-23T06:16:48.471Z,7.80
2017-11-23T06:17:51.697Z,11.27
2017-11-23T06:18:54.613Z,9.38
2017-11-23T06:19:57.099Z,11.52
2017-11-23T06:20:59.571Z,9.32
2017-11-23T06:22:02.040Z,7.30
2017-11-23T06:23:04.579Z,6.82
2017-11-23T06:24:07.044Z,9.90
2017-11-23T06:25:09.550Z,11.05
2017-11-23T06:26:12.159Z,9.05
2017-11-23T06:27:14.616Z,9.20
2017-11-23T06:28:17.164Z,9.73
2017-11-23T06:29:20.086Z,8.25
2017-11-23T06:30:22.707Z,9.68
2017-11-23T06:31:25.278Z,9.10
2017-11-23T06:32:28.935Z,6.72
2017-11-23T06:33:31.415Z,11.57
2017-11-23T06:34:33.871Z,8.13
2017-11-23T06:35:36.354Z,9.98
2017-11-23T06:36:38.849Z,7.43
2017-11-23T06:37:41.360Z,12.68
2017-11-23T06:38:43.824Z,8.18
2017-11-23T06:39:46.357Z,9.73
2017-11-23T06:40:48.856Z,8.38
2017-11-23T06:41:51.319Z,14.23
2017-11-23T06:42:53.788Z,9.38
2017-11-23T06:43:56.249Z,7.25
2017-11-23T06:44:58.732Z,10.30
2017-11-23T06:46:01.187Z,6.50
2017-11-23T06:47:03.682Z,11.93
2017-11-23T06:48:06.949Z,7.97
2017-11-23T06:49:09.435Z,8.43
2017-11-23T06:50:12.688Z,11.73
2017-11-23T06:51:15.146Z,8.93
2017-11-23T06:52:17.609Z,7.50
2017-11-23T06:53:20.091Z,11.25
2017-11-23T06:54:23.368Z,8.55
2017-11-23T06:55:25.889Z,5.85
2017-11-23T06:56:28.470Z,9.38
2017-11-23T06:57:30.949Z,7.18
2017-11-23T06:58:33.700Z,14.65
2017-11-23T06:59:36.708Z,6.25
2017-11-23T07:00:39.243Z,8.55
2017-11-23T07:01:41.751Z,6.80
2017-11-23T07:02:45.455Z,9.63
2017-11-23T07:03:48.694Z,7.50
2017-11-23T07:04:51.915Z,10.45
2017-11-23T07:05:54.437Z,6.40
2017-11-23T07:06:56.914Z,7.90
2017-11-23T07:07:59.384Z,9.95
2017-11-23T07:09:02.653Z,9.25
2017-11-23T07:10:05.871Z,8.60
2017-11-23T07:11:08.328Z,6.43
2017-11-23T07:12:10.846Z,10.13
2017-11-23T07:13:14.205Z,8.32
2017-11-23T07:14:16.683Z,8.60
2017-11-23T07:15:19.304Z,9.60
2017-11-23T07:16:21.758Z,8.77
2017-11-23T07:17:25.020Z,8.60
2017-11-23T07:18:27.512Z,13.93
2017-11-23T07:19:29.993Z,12.50
2017-11-23T07:20:32.516Z,6.85
2017-11-23T07:21:35.016Z,10.65
2017-11-23T07:22:37.516Z,7.80
2017-11-23T07:23:39.984Z,12.45
2017-11-23T07:24:42.519Z,8.70
2017-11-23T07:25:45.014Z,12.00
2017-11-23T07:26:48.311Z,7.12
2017-11-23T07:27:50.867Z,7.70
2017-11-23T07:28:54.106Z,8.98
2017-11-23T07:29:57.352Z,10.13
2017-11-23T07:31:00.593Z,8.60
2017-11-23T07:32:03.058Z,7.70
2017-11-23T07:33:05.913Z,13.25
2017-11-23T07:34:08.525Z,9.43
2017-11-23T07:35:11.012Z,10.13
2017-11-23T07:36:14.384Z,6.87
2017-11-23T07:37:16.889Z,7.95
2017-11-23T07:38:19.364Z,13.55
2017-11-23T07:39:21.839Z,11.40
2017-11-23T07:40:25.098Z,10.57
2017-11-23T07:41:27.583Z,10.82
2017-11-23T07:42:30.035Z,11.88
2017-11-23T07:43:32.534Z,9.48
2017-11-23T07:44:35.006Z,10.32
2017-11-23T07:45:37.529Z,9.75
2017-11-23T07:46:40.062Z,12.13
2017-11-23T07:47:42.565Z,9.70
2017-11-23T07:48:45.141Z,13.20
2017-11-23T07:49:47.630Z,8.88
2017-11-23T07:50:50.144Z,7.37
2017-11-23T07:51:52.636Z,11.85
2017-11-23T07:52:56.716Z,8.05
2017-11-23T07:54:00.020Z,12.13
2017-11-23T07:55:03.281Z,10.73
2017-11-23T07:56:05.765Z,9.85
2017-11-23T07:57:08.226Z,7.10
2017-11-23T07:58:10.682Z,8.98
2017-11-23T07:59:13.915Z,8.75
2017-11-23T08:00:17.187Z,8.05
2017-11-23T08:01:19.680Z,8.13
2017-11-23T08:02:22.945Z,8.77
2017-11-23T08:03:25.436Z,10.00
2017-11-23T08:04:27.908Z,10.35
2017-11-23T08:05:30.374Z,7.87
2017-11-23T08:06:32.857Z,7.85
2017-11-23T08:07:35.401Z,9.95
2017-11-23T08:08:38.648Z,8.30
2017-11-23T08:09:41.113Z,9.13
2017-11-23T08:10:44.382Z,9.90
2017-11-23T08:11:47.611Z,13.23
2017-11-23T08:12:50.095Z,11.63
2017-11-23T08:13:52.558Z,11.90
2017-11-23T08:14:55.804Z,10.27
2017-11-23T08:15:59.189Z,8.80
2017-11-23T08:17:01.652Z,9.02
2017-11-23T08:18:04.259Z,9.48
2017-11-23T08:19:06.719Z,8.07
2017-11-23T08:20:09.980Z,8.93
2017-11-23T08:21:12.454Z,8.98
2017-11-23T08:22:15.759Z,7.97
2017-11-23T08:23:18.290Z,11.98
2017-11-23T08:24:20.773Z,10.30
2017-11-23T08:25:24.149Z,7.10
2017-11-23T08:26:26.628Z,9.23
2017-11-23T08:27:29.097Z,8.18
2017-11-23T08:28:31.634Z,9.82
2017-11-23T08:29:34.205Z,6.32
2017-11-23T08:30:36.945Z,11.52
2017-11-23T08:31:39.406Z,11.32
2017-11-23T08:32:42.043Z,12.15
2017-11-23T08:33:44.521Z,12.73
2017-11-23T08:34:46.976Z,13.50
2017-11-23T08:35:49.490Z,7.87
2017-11-23T08:36:52.804Z,14.45
2017-11-23T08:37:55.281Z,8.98
2017-11-23T08:38:57.763Z,10.82
2017-11-23T08:40:00.255Z,8.65
2017-11-23T08:41:02.708Z,8.90
2017-11-23T08:42:05.214Z,11.02
2017-11-23T08:43:07.748Z,10.07
2017-11-23T08:44:10.381Z,13.02
2017-11-23T08:45:12.959Z,7.28
2017-11-23T08:46:15.476Z,7.80
2017-11-23T08:47:17.983Z,7.65
2017-11-23T08:48:20.478Z,10.98
2017-11-23T08:49:22.960Z,9.30
2017-11-23T08:50:25.438Z,12.02
2017-11-23T08:51:28.752Z,13.30
2017-11-23T08:52:34.790Z,11.30
2017-11-23T08:53:37.276Z,10.00
2017-11-23T08:54:45.575Z,10.27
2017-11-23T08:55:49.831Z,14.27
2017-11-23T08:56:52.296Z,10.88
2017-11-23T08:57:55.586Z,13.80
2017-11-23T08:58:58.099Z,13.25
2017-11-23T09:00:00.559Z,8.60
2017-11-23T09:01:03.024Z,17.30
2017-11-23T09:02:05.523Z,11.18
2017-11-23T09:03:09.458Z,11.52
2017-11-23T09:04:11.936Z,11.90
2017-11-23T09:05:14.435Z,9.45
2017-11-23T09:06:16.900Z,8.45
2017-11-23T09:07:19.382Z,12.10
2017-11-23T09:08:22.726Z,10.18
2017-11-23T09:09:25.265Z,11.90
2017-11-23T09:10:28.518Z,8.20
2017-11-23T09:11:31.059Z,10.70
2017-11-23T09:12:39.374Z,11.40
2017-11-23T09:13:42.623Z,9.88
2017-11-23T09:14:45.863Z,13.13
2017-11-23T09:15:49.215Z,8.32
2017-11-23T09:16:52.452Z,9.25
2017-11-23T09:17:55.765Z,12.05
2017-11-23T09:18:58.249Z,7.43
2017-11-23T09:20:00.771Z,12.75
2017-11-23T09:21:03.255Z,8.52
2017-11-23T09:22:05.878Z,6.30
2017-11-23T09:23:09.285Z,10.00
2017-11-23T09:24:11.806Z,14.00
2017-11-23T09:25:14.263Z,12.32
2017-11-23T09:26:17.159Z,9.60
2017-11-23T09:27:19.661Z,10.43
2017-11-23T09:28:22.891Z,13.15
2017-11-23T09:29:25.351Z,9.90
2017-11-23T09:30:27.920Z,8.23
2017-11-23T09:31:30.386Z,6.72
2017-11-23T09:32:33.647Z,8.00
2017-11-23T09:33:36.172Z,12.05
2017-11-23T09:34:38.675Z,11.43
2017-11-23T09:35:42.057Z,9.73
2017-11-23T09:36:44.522Z,11.38
2017-11-23T09:37:47.001Z,7.70
2017-11-23T09:38:49.481Z,12.23
2017-11-23T09:39:51.955Z,9.40
2017-11-23T09:40:54.430Z,13.07
2017-11-23T09:41:57.689Z,8.77
2017-11-23T09:43:00.924Z,10.10
2017-11-23T09:44:04.140Z,8.88
2017-11-23T09:45:06.813Z,9.13
2017-11-23T09:46:09.289Z,9.25
2017-11-23T09:47:11.793Z,7.72
2017-11-23T09:48:14.338Z,8.18
2017-11-23T09:49:16.803Z,13.45
2017-11-23T09:50:20.052Z,10.43
2017-11-23T09:51:22.512Z,15.10
2017-11-23T09:52:25.032Z,10.35
2017-11-23T09:53:27.552Z,14.07
2017-11-23T09:54:30.089Z,8.43
2017-11-23T09:55:32.579Z,12.52
2017-11-23T09:56:35.597Z,9.10
2017-11-23T09:57:38.167Z,5.85
2017-11-23T09:58:40.747Z,18.75
2017-11-23T09:59:43.203Z,10.63
2017-11-23T10:00:45.724Z,11.38
2017-11-23T10:01:48.176Z,11.00
2017-11-23T10:02:50.641Z,11.85
2017-11-23T10:03:53.095Z,8.60
2017-11-23T10:04:55.572Z,8.93
2017-11-23T10:05:58.078Z,8.85
2017-11-23T10:07:00.552Z,9.90
2017-11-23T10:08:03.795Z,9.43
2017-11-23T10:09:07.043Z,9.93
2017-11-23T10:10:10.296Z,13.90
2017-11-23T10:11:12.784Z,10.30
2017-11-23T10:12:15.255Z,17.12
2017-11-23T10:13:17.813Z,10.48
2017-11-23T10:14:26.038Z,7.82
2017-11-23T10:15:28.572Z,5.85
2017-11-23T10:16:31.037Z,7.93
2017-11-23T10:17:33.508Z,10.13
2017-11-23T10:18:35.988Z,5.72
2017-11-23T10:19:38.570Z,10.98
2017-11-23T10:20:41.044Z,8.75
2017-11-23T10:21:43.542Z,4.62
2017-11-23T10:22:46.006Z,7.95
2017-11-23T10:23:49.244Z,7.40
2017-11-23T10:24:51.711Z,6.65
2017-11-23T10:25:54.221Z,8.93
2017-11-23T10:26:56.684Z,7.20
2017-11-23T10:27:59.148Z,5.80
2017-11-23T10:29:01.738Z,6.87
2017-11-23T10:30:04.204Z,5.40
2017-11-23T10:31:07.468Z,3.95
2017-11-23T10:32:10.042Z,4.32
2017-11-23T10:33:12.562Z,6.68
2017-11-23T10:34:15.028Z,6.53
2017-11-23T10:35:18.259Z,7.25
2017-11-23T10:36:20.989Z,6.40
2017-11-23T10:37:29.094Z,5.78
2017-11-23T10:38:31.569Z,9.85
2017-11-23T10:39:34.184Z,6.45
2017-11-23T10:40:36.712Z,9.38
2017-11-23T10:41:39.244Z,7.22
2017-11-23T10:42:43.166Z,7.43
2017-11-23T10:43:45.644Z,5.22
2017-11-23T10:44:48.875Z,12.40
2017-11-23T10:45:52.152Z,6.18
2017-11-23T10:46:54.620Z,5.75
2017-11-23T10:47:57.200Z,6.95
2017-11-23T10:48:59.684Z,6.30
2017-11-23T10:50:02.187Z,8.70
2017-11-23T10:51:04.760Z,7.53
2017-11-23T10:52:08.041Z,14.30
2017-11-23T10:53:10.511Z,6.43
2017-11-23T10:54:12.999Z,11.43
2017-11-23T10:55:15.492Z,5.28
2017-11-23T10:56:17.992Z,7.55
2017-11-23T10:57:20.496Z,5.22
2017-11-23T10:58:22.945Z,8.27
2017-11-23T10:59:26.220Z,5.20
2017-11-23T11:00:28.815Z,5.78
2017-11-23T11:01:32.104Z,5.25
2017-11-23T11:02:34.589Z,12.82
2017-11-23T11:03:37.852Z,4.70
2017-11-23T11:04:40.328Z,5.90
2017-11-23T11:05:42.947Z,6.95
2017-11-23T11:06:45.408Z,5.30
2017-11-23T11:07:47.957Z,6.40
2017-11-23T11:08:50.433Z,7.97
2017-11-23T11:09:52.921Z,6.87
2017-11-23T11:10:55.405Z,5.78
2017-11-23T11:11:58.654Z,10.95
2017-11-23T11:13:02.089Z,7.85
2017-11-23T11:14:04.602Z,7.00
2017-11-23T11:15:07.086Z,6.97
2017-11-23T11:16:09.632Z,4.62
2017-11-23T11:17:12.131Z,8.43
2017-11-23T11:18:14.643Z,8.73
2017-11-23T11:19:17.127Z,5.62
2017-11-23T11:20:19.601Z,8.52
2017-11-23T11:21:22.076Z,5.43
2017-11-23T11:22:24.636Z,7.50
2017-11-23T11:23:27.187Z,5.95
2017-11-23T11:24:29.709Z,5.20
2017-11-23T11:25:32.219Z,6.18
2017-11-23T11:26:34.798Z,9.32
2017-11-23T11:27:37.349Z,5.53
2017-11-23T11:28:39.931Z,6.90
2017-11-23T11:29:42.421Z,6.32
2017-11-23T11:30:45.711Z,12.65
2017-11-23T11:31:48.167Z,4.55
2017-11-23T11:32:50.663Z,10.52
2017-11-23T11:33:53.154Z,10.55
2017-11-23T11:34:55.624Z,8.38
2017-11-23T11:35:58.101Z,5.60
2017-11-23T11:37:00.569Z,7.68
2017-11-23T11:38:03.052Z,6.18
2017-11-23T11:39:05.527Z,5.82
2017-11-23T11:40:08.043Z,8.43
2017-11-23T11:41:10.520Z,8.07
2017-11-23T11:42:12.975Z,6.60
2017-11-23T11:43:15.646Z,8.43
2017-11-23T11:44:18.833Z,3.95
2017-11-23T11:45:21.337Z,6.12
2017-11-23T11:46:23.813Z,7.43
2017-11-23T11:47:26.339Z,12.02
2017-11-23T11:48:28.831Z,8.38
2017-11-23T11:49:31.306Z,6.05
2017-11-23T11:50:34.574Z,7.15
2017-11-23T11:51:37.842Z,6.85
2017-11-23T11:52:40.693Z,5.07
2017-11-23T11:53:44.097Z,8.20
2017-11-23T11:54:47.279Z,8.10
2017-11-23T11:55:49.761Z,6.32
2017-11-23T11:56:53.131Z,10.30
2017-11-23T11:57:55.612Z,6.72
2017-11-23T11:58:58.863Z,6.40
2017-11-23T12:00:02.100Z,9.07
2017-11-23T12:01:04.632Z,5.45
2017-11-23T12:02:08.078Z,12.10
2017-11-23T12:03:11.313Z,4.70
2017-11-23T12:04:15.316Z,7.25
2017-11-23T12:05:17.787Z,11.12
2017-11-23T12:06:20.264Z,11.20
2017-11-23T12:07:22.756Z,5.22
2017-11-23T12:08:25.988Z,4.90
2017-11-23T12:09:28.460Z,7.70
2017-11-23T12:10:30.959Z,6.90
2017-11-23T12:11:33.904Z,7.12
2017-11-23T12:12:36.364Z,5.82
2017-11-23T12:13:38.827Z,5.90
2017-11-23T12:14:42.124Z,6.30
2017-11-23T12:15:56.655Z,7.80
2017-11-23T12:18:48.572Z,9.88
2017-11-23T12:20:03.084Z,6.07
2017-11-23T12:21:26.432Z,6.90
2017-11-23T12:22:49.803Z,8.85
2017-11-23T12:24:11.672Z,6.70
2017-11-23T12:25:26.830Z,9.57
2017-11-23T12:26:29.436Z,5.10
2017-11-23T12:27:43.889Z,10.05
2017-11-23T12:28:58.314Z,4.60
2017-11-23T12:30:03.971Z,5.20
2017-11-23T12:31:06.468Z,8.32
2017-11-23T12:32:08.998Z,10.25
2017-11-23T12:33:11.515Z,7.30
2017-11-23T12:34:13.987Z,6.53
2017-11-23T12:35:16.490Z,8.15
2017-11-23T12:36:19.072Z,8.25
2017-11-23T12:37:21.654Z,15.70
2017-11-23T12:38:24.103Z,6.80
2017-11-23T12:39:27.347Z,9.88
2017-11-23T12:40:30.720Z,7.25
2017-11-23T12:41:33.366Z,8.70
2017-11-23T12:42:35.859Z,5.32
2017-11-23T12:43:38.329Z,6.78
2017-11-23T12:44:40.787Z,6.15
2017-11-23T12:45:43.266Z,5.47
2017-11-23T12:46:45.767Z,6.12
2017-11-23T12:47:48.289Z,9.45
2017-11-23T12:48:50.812Z,9.52
2017-11-23T12:49:54.178Z,7.80
2017-11-23T12:50:56.664Z,4.53
2017-11-23T12:51:59.946Z,6.30
2017-11-23T12:53:02.408Z,4.50
2017-11-23T12:54:04.878Z,10.30
2017-11-23T12:55:07.339Z,7.00
2017-11-23T12:56:09.807Z,11.57
2017-11-23T12:57:13.067Z,13.80
2017-11-23T12:58:16.293Z,6.45
2017-11-23T12:59:19.544Z,6.37
2017-11-23T13:00:22.791Z,8.80
2017-11-23T13:01:26.024Z,6.30
2017-11-23T13:02:29.288Z,5.30
2017-11-23T13:03:31.745Z,5.75
2017-11-23T13:04:34.242Z,6.72
2017-11-23T13:05:36.708Z,7.12
2017-11-23T13:06:39.179Z,3.55
2017-11-23T13:07:41.663Z,6.47
2017-11-23T13:08:44.155Z,5.45
2017-11-23T13:09:47.176Z,6.65
2017-11-23T13:10:49.644Z,5.43
2017-11-23T13:11:52.144Z,7.93
2017-11-23T13:12:54.656Z,8.60
2017-11-23T13:13:57.124Z,8.00
2017-11-23T13:14:59.691Z,7.65
2017-11-23T13:16:02.184Z,6.80
2017-11-23T13:17:04.764Z,6.22
2017-11-23T13:18:07.282Z,7.15
2017-11-23T13:19:10.528Z,4.50
2017-11-23T13:20:13.038Z,8.25
2017-11-23T13:21:15.729Z,7.47
2017-11-23T13:22:18.207Z,10.07
2017-11-23T13:23:21.278Z,7.85
2017-11-23T13:24:23.773Z,4.70
2017-11-23T13:25:26.271Z,6.30
2017-11-23T13:26:29.528Z,8.38
2017-11-23T13:27:31.979Z,6.12
2017-11-23T13:28:34.448Z,7.45
2017-11-23T13:29:36.969Z,7.87
2017-11-23T13:30:39.467Z,7.20
2017-11-23T13:31:41.958Z,4.93
2017-11-23T13:32:44.447Z,7.65
2017-11-23T13:33:47.318Z,4.72
2017-11-23T13:34:49.836Z,4.62
2017-11-23T13:35:52.365Z,14.13
2017-11-23T13:36:54.874Z,4.40
2017-11-23T13:37:58.119Z,3.62
2017-11-23T13:39:01.364Z,5.75
2017-11-23T13:40:04.602Z,4.22
2017-11-23T13:41:07.068Z,8.75
2017-11-23T13:42:09.570Z,3.65
2017-11-23T13:43:12.041Z,5.20
2017-11-23T13:44:15.037Z,4.07
2017-11-23T13:45:17.508Z,4.18
2017-11-23T13:46:19.976Z,9.70
2017-11-23T13:47:22.468Z,4.10
2017-11-23T13:48:24.938Z,3.40
2017-11-23T13:49:27.427Z,3.45
2017-11-23T13:50:30.689Z,5.75
2017-11-23T13:51:33.920Z,3.22
2017-11-23T13:52:37.192Z,4.93
2017-11-23T13:53:39.672Z,5.28
2017-11-23T13:54:42.899Z,5.78
2017-11-23T13:55:45.419Z,6.93
2017-11-23T13:56:48.006Z,5.45
2017-11-23T13:57:50.518Z,5.53